sensor_id;sensor_type;location;lat;lon;timestamp;temperature;humidity
1361;DHT22;674;45.552;-122.600;2022-10-16T00:01:48;27.50;1.00
1361;DHT22;674;45.552;-122.600;2022-10-16T00:04:16;27.40;1.00
1361;DHT22;674;45.552;-122.600;2022-10-16T00:06:45;27.40;1.00
1361;DHT22;674;45.552;-122.600;2022-10-16T00:09:13;27.40;1.00
1361;DHT22;674;45.552;-122.600;2022-10-16T00:11:42;27.30;1.00
1361;DHT22;674;45.552;-122.600;2022-10-16T00:14:13;27.20;1.00
1361;DHT22;674;45.552;-122.600;2022-10-16T00:16:41;27.20;1.00
1361;DHT22;674;45.552;-122.600;2022-10-16T00:19:11;27.20;1.00
1361;DHT22;674;45.552;-122.600;2022-10-16T00:21:40;27.10;1.00
1361;DHT22;674;45.552;-122.600;2022-10-16T00:24:10;27.10;1.00
1361;DHT22;674;45.552;-122.600;2022-10-16T00:26:39;27.10;1.00
1361;DHT22;674;45.552;-122.600;2022-10-16T00:29:08;27.00;1.00
1361;DHT22;674;45.552;-122.600;2022-10-16T00:31:36;26.90;1.00
1361;DHT22;674;45.552;-122.600;2022-10-16T00:34:05;26.80;1.00
1361;DHT22;674;45.552;-122.600;2022-10-16T00:36:33;26.70;1.00
1361;DHT22;674;45.552;-122.600;2022-10-16T00:39:02;26.70;1.00
1361;DHT22;674;45.552;-122.600;2022-10-16T00:41:32;26.50;1.00
1361;DHT22;674;45.552;-122.600;2022-10-16T00:47:10;26.40;1.00
1361;DHT22;674;45.552;-122.600;2022-10-16T00:49:40;26.30;1.00
1361;DHT22;674;45.552;-122.600;2022-10-16T00:52:10;26.20;1.00
1361;DHT22;674;45.552;-122.600;2022-10-16T00:54:39;26.10;1.00
1361;DHT22;674;45.552;-122.600;2022-10-16T00:57:08;26.10;1.00
1361;DHT22;674;45.552;-122.600;2022-10-16T00:59:41;26.00;1.00
1361;DHT22;674;45.552;-122.600;2022-10-16T01:02:13;26.00;1.00
1361;DHT22;674;45.552;-122.600;2022-10-16T01:04:52;25.90;1.00
1361;DHT22;674;45.552;-122.600;2022-10-16T01:10:30;25.70;1.00
1361;DHT22;674;45.552;-122.600;2022-10-16T01:13:11;25.70;1.00
1361;DHT22;674;45.552;-122.600;2022-10-16T01:18:37;25.50;1.00
1361;DHT22;674;45.552;-122.600;2022-10-16T01:21:18;25.50;1.00
1361;DHT22;674;45.552;-122.600;2022-10-16T01:27:08;25.30;1.00
1361;DHT22;674;45.552;-122.600;2022-10-16T01:29:42;25.10;1.00
1361;DHT22;674;45.552;-122.600;2022-10-16T01:32:33;25.20;1.00
1361;DHT22;674;45.552;-122.600;2022-10-16T01:35:18;25.10;1.00
1361;DHT22;674;45.552;-122.600;2022-10-16T01:40:49;24.90;1.00
1361;DHT22;674;45.552;-122.600;2022-10-16T01:43:25;24.80;1.00
1361;DHT22;674;45.552;-122.600;2022-10-16T01:45:55;24.60;1.00
1361;DHT22;674;45.552;-122.600;2022-10-16T01:48:25;24.70;1.00
1361;DHT22;674;45.552;-122.600;2022-10-16T01:51:05;24.60;1.00
1361;DHT22;674;45.552;-122.600;2022-10-16T01:53:35;24.60;1.00
1361;DHT22;674;45.552;-122.600;2022-10-16T01:56:07;24.50;1.00
1361;DHT22;674;45.552;-122.600;2022-10-16T01:58:45;24.50;1.00
1361;DHT22;674;45.552;-122.600;2022-10-16T02:01:16;24.40;1.00
1361;DHT22;674;45.552;-122.600;2022-10-16T02:03:48;24.40;1.00
1361;DHT22;674;45.552;-122.600;2022-10-16T02:06:19;24.40;1.00
1361;DHT22;674;45.552;-122.600;2022-10-16T02:08:48;24.40;1.00
1361;DHT22;674;45.552;-122.600;2022-10-16T02:11:17;24.40;1.00
1361;DHT22;674;45.552;-122.600;2022-10-16T02:13:54;24.30;1.00
1361;DHT22;674;45.552;-122.600;2022-10-16T02:16:31;24.30;1.00
1361;DHT22;674;45.552;-122.600;2022-10-16T02:19:00;24.20;1.00
1361;DHT22;674;45.552;-122.600;2022-10-16T02:21:33;24.20;1.00
1361;DHT22;674;45.552;-122.600;2022-10-16T02:24:11;24.20;1.00
1361;DHT22;674;45.552;-122.600;2022-10-16T02:26:51;24.30;1.00
1361;DHT22;674;45.552;-122.600;2022-10-16T02:29:24;24.30;1.00
1361;DHT22;674;45.552;-122.600;2022-10-16T02:32:00;24.20;1.00
1361;DHT22;674;45.552;-122.600;2022-10-16T02:34:31;24.10;1.00
1361;DHT22;674;45.552;-122.600;2022-10-16T02:37:01;24.20;1.00
1361;DHT22;674;45.552;-122.600;2022-10-16T02:39:32;24.30;1.00
1361;DHT22;674;45.552;-122.600;2022-10-16T02:42:01;24.30;1.00
1361;DHT22;674;45.552;-122.600;2022-10-16T02:44:30;24.30;1.00
1361;DHT22;674;45.552;-122.600;2022-10-16T02:46:58;24.20;1.00
1361;DHT22;674;45.552;-122.600;2022-10-16T02:49:26;24.30;1.00
1361;DHT22;674;45.552;-122.600;2022-10-16T02:51:55;24.10;1.00
1361;DHT22;674;45.552;-122.600;2022-10-16T02:54:23;24.20;1.00
1361;DHT22;674;45.552;-122.600;2022-10-16T02:56:52;24.20;1.00
1361;DHT22;674;45.552;-122.600;2022-10-16T02:59:20;24.20;1.00
1361;DHT22;674;45.552;-122.600;2022-10-16T03:01:49;24.00;1.00
1361;DHT22;674;45.552;-122.600;2022-10-16T03:04:18;24.00;1.00
1361;DHT22;674;45.552;-122.600;2022-10-16T03:06:46;24.00;1.00
1361;DHT22;674;45.552;-122.600;2022-10-16T03:09:14;24.00;1.00
1361;DHT22;674;45.552;-122.600;2022-10-16T03:11:43;24.00;1.00
1361;DHT22;674;45.552;-122.600;2022-10-16T03:14:11;23.90;1.00
1361;DHT22;674;45.552;-122.600;2022-10-16T03:16:40;23.80;1.00
1361;DHT22;674;45.552;-122.600;2022-10-16T03:19:08;23.80;1.00
1361;DHT22;674;45.552;-122.600;2022-10-16T03:21:37;23.70;1.00
1361;DHT22;674;45.552;-122.600;2022-10-16T03:24:05;23.70;1.00
1361;DHT22;674;45.552;-122.600;2022-10-16T03:26:34;23.70;1.00
1361;DHT22;674;45.552;-122.600;2022-10-16T03:29:02;23.90;1.00
1361;DHT22;674;45.552;-122.600;2022-10-16T03:31:31;23.90;1.00
1361;DHT22;674;45.552;-122.600;2022-10-16T03:34:00;23.80;1.00
1361;DHT22;674;45.552;-122.600;2022-10-16T03:36:28;23.70;1.00
1361;DHT22;674;45.552;-122.600;2022-10-16T03:38:57;23.70;1.00
1361;DHT22;674;45.552;-122.600;2022-10-16T03:41:25;23.80;1.00
1361;DHT22;674;45.552;-122.600;2022-10-16T03:43:54;23.90;1.00
1361;DHT22;674;45.552;-122.600;2022-10-16T03:46:22;23.90;1.00
1361;DHT22;674;45.552;-122.600;2022-10-16T03:48:51;23.90;1.00
1361;DHT22;674;45.552;-122.600;2022-10-16T03:51:19;23.90;1.00
1361;DHT22;674;45.552;-122.600;2022-10-16T03:53:47;23.80;1.00
1361;DHT22;674;45.552;-122.600;2022-10-16T03:56:16;23.70;1.00
1361;DHT22;674;45.552;-122.600;2022-10-16T03:58:44;23.70;1.00
1361;DHT22;674;45.552;-122.600;2022-10-16T04:01:13;23.50;1.00
1361;DHT22;674;45.552;-122.600;2022-10-16T04:03:42;23.60;1.00
1361;DHT22;674;45.552;-122.600;2022-10-16T04:06:10;23.60;1.00
1361;DHT22;674;45.552;-122.600;2022-10-16T04:08:38;23.60;1.00
1361;DHT22;674;45.552;-122.600;2022-10-16T04:11:07;23.50;1.00
1361;DHT22;674;45.552;-122.600;2022-10-16T04:13:36;23.50;1.00
1361;DHT22;674;45.552;-122.600;2022-10-16T04:16:04;23.50;1.00
1361;DHT22;674;45.552;-122.600;2022-10-16T04:18:33;23.40;1.00
1361;DHT22;674;45.552;-122.600;2022-10-16T04:21:05;23.40;1.00
1361;DHT22;674;45.552;-122.600;2022-10-16T04:23:34;23.50;1.00
1361;DHT22;674;45.552;-122.600;2022-10-16T04:26:03;23.50;1.00
1361;DHT22;674;45.552;-122.600;2022-10-16T04:28:31;23.40;1.00
1361;DHT22;674;45.552;-122.600;2022-10-16T04:31:00;23.20;1.00
1361;DHT22;674;45.552;-122.600;2022-10-16T04:33:31;23.30;1.00
1361;DHT22;674;45.552;-122.600;2022-10-16T04:36:00;23.20;1.00
1361;DHT22;674;45.552;-122.600;2022-10-16T04:38:29;23.30;1.00
1361;DHT22;674;45.552;-122.600;2022-10-16T04:40:58;23.30;1.00
1361;DHT22;674;45.552;-122.600;2022-10-16T04:43:27;23.20;1.00
1361;DHT22;674;45.552;-122.600;2022-10-16T04:45:55;23.20;1.00
1361;DHT22;674;45.552;-122.600;2022-10-16T04:48:24;23.20;1.00
1361;DHT22;674;45.552;-122.600;2022-10-16T04:50:52;23.40;1.00
1361;DHT22;674;45.552;-122.600;2022-10-16T04:53:21;23.30;1.00
1361;DHT22;674;45.552;-122.600;2022-10-16T04:55:50;23.40;1.00
1361;DHT22;674;45.552;-122.600;2022-10-16T04:58:19;23.40;1.00
1361;DHT22;674;45.552;-122.600;2022-10-16T05:00:47;23.20;1.00
1361;DHT22;674;45.552;-122.600;2022-10-16T05:03:15;23.20;1.00
1361;DHT22;674;45.552;-122.600;2022-10-16T05:05:45;23.30;1.00
1361;DHT22;674;45.552;-122.600;2022-10-16T05:08:14;23.20;1.00
1361;DHT22;674;45.552;-122.600;2022-10-16T05:10:44;23.40;1.00
1361;DHT22;674;45.552;-122.600;2022-10-16T05:13:12;23.40;1.00
1361;DHT22;674;45.552;-122.600;2022-10-16T05:15:41;23.40;1.00
1361;DHT22;674;45.552;-122.600;2022-10-16T05:18:09;23.30;1.00
1361;DHT22;674;45.552;-122.600;2022-10-16T05:20:38;23.50;1.00
1361;DHT22;674;45.552;-122.600;2022-10-16T05:23:06;23.50;1.00
1361;DHT22;674;45.552;-122.600;2022-10-16T05:25:34;23.50;1.00
1361;DHT22;674;45.552;-122.600;2022-10-16T05:28:03;23.50;1.00
1361;DHT22;674;45.552;-122.600;2022-10-16T05:30:32;23.60;1.00
1361;DHT22;674;45.552;-122.600;2022-10-16T05:33:00;23.70;1.00
1361;DHT22;674;45.552;-122.600;2022-10-16T05:35:29;23.60;1.00
1361;DHT22;674;45.552;-122.600;2022-10-16T05:37:57;23.50;1.00
1361;DHT22;674;45.552;-122.600;2022-10-16T05:40:25;23.40;1.00
1361;DHT22;674;45.552;-122.600;2022-10-16T05:42:57;23.40;1.00
1361;DHT22;674;45.552;-122.600;2022-10-16T05:45:25;23.40;1.00
1361;DHT22;674;45.552;-122.600;2022-10-16T05:47:54;23.40;1.00
1361;DHT22;674;45.552;-122.600;2022-10-16T05:50:22;23.30;1.00
1361;DHT22;674;45.552;-122.600;2022-10-16T05:52:51;23.40;1.00
1361;DHT22;674;45.552;-122.600;2022-10-16T05:55:20;23.30;1.00
1361;DHT22;674;45.552;-122.600;2022-10-16T05:57:48;23.20;1.00
1361;DHT22;674;45.552;-122.600;2022-10-16T06:00:17;23.20;1.00
1361;DHT22;674;45.552;-122.600;2022-10-16T06:02:45;23.20;1.00
1361;DHT22;674;45.552;-122.600;2022-10-16T06:05:14;23.20;1.00
1361;DHT22;674;45.552;-122.600;2022-10-16T06:07:42;23.20;1.00
1361;DHT22;674;45.552;-122.600;2022-10-16T06:10:10;23.10;1.00
1361;DHT22;674;45.552;-122.600;2022-10-16T06:12:39;23.20;1.00
1361;DHT22;674;45.552;-122.600;2022-10-16T06:15:07;23.10;1.00
1361;DHT22;674;45.552;-122.600;2022-10-16T06:17:36;23.10;1.00
1361;DHT22;674;45.552;-122.600;2022-10-16T06:20:05;23.00;1.00
1361;DHT22;674;45.552;-122.600;2022-10-16T06:22:33;23.00;1.00
1361;DHT22;674;45.552;-122.600;2022-10-16T06:25:02;23.00;1.00
1361;DHT22;674;45.552;-122.600;2022-10-16T06:27:30;22.90;1.00
1361;DHT22;674;45.552;-122.600;2022-10-16T06:29:59;22.80;1.00
1361;DHT22;674;45.552;-122.600;2022-10-16T06:32:27;23.00;1.00
1361;DHT22;674;45.552;-122.600;2022-10-16T06:34:56;22.90;1.00
1361;DHT22;674;45.552;-122.600;2022-10-16T06:37:24;22.90;1.00
1361;DHT22;674;45.552;-122.600;2022-10-16T06:39:53;23.00;1.00
1361;DHT22;674;45.552;-122.600;2022-10-16T06:42:22;23.00;1.00
1361;DHT22;674;45.552;-122.600;2022-10-16T06:44:51;23.10;1.00
1361;DHT22;674;45.552;-122.600;2022-10-16T06:47:19;23.10;1.00
1361;DHT22;674;45.552;-122.600;2022-10-16T06:49:48;23.10;1.00
1361;DHT22;674;45.552;-122.600;2022-10-16T06:52:20;23.00;1.00
1361;DHT22;674;45.552;-122.600;2022-10-16T06:54:50;22.90;1.00
1361;DHT22;674;45.552;-122.600;2022-10-16T06:57:18;22.90;1.00
1361;DHT22;674;45.552;-122.600;2022-10-16T06:59:47;22.90;1.00
1361;DHT22;674;45.552;-122.600;2022-10-16T07:02:21;22.80;1.00
1361;DHT22;674;45.552;-122.600;2022-10-16T07:04:50;22.90;1.00
1361;DHT22;674;45.552;-122.600;2022-10-16T07:07:19;22.80;1.00
1361;DHT22;674;45.552;-122.600;2022-10-16T07:09:47;22.90;1.00
1361;DHT22;674;45.552;-122.600;2022-10-16T07:12:16;22.90;1.00
1361;DHT22;674;45.552;-122.600;2022-10-16T07:14:44;22.90;1.00
1361;DHT22;674;45.552;-122.600;2022-10-16T07:17:13;22.80;1.00
1361;DHT22;674;45.552;-122.600;2022-10-16T07:19:41;22.80;1.00
1361;DHT22;674;45.552;-122.600;2022-10-16T07:22:10;22.70;1.00
1361;DHT22;674;45.552;-122.600;2022-10-16T07:24:38;22.60;1.00
1361;DHT22;674;45.552;-122.600;2022-10-16T07:27:07;22.50;1.00
1361;DHT22;674;45.552;-122.600;2022-10-16T07:29:35;22.60;1.00
1361;DHT22;674;45.552;-122.600;2022-10-16T07:32:04;22.60;1.00
1361;DHT22;674;45.552;-122.600;2022-10-16T07:34:32;22.50;1.00
1361;DHT22;674;45.552;-122.600;2022-10-16T07:37:01;22.60;1.00
1361;DHT22;674;45.552;-122.600;2022-10-16T07:39:29;22.50;1.00
1361;DHT22;674;45.552;-122.600;2022-10-16T07:41:58;22.40;1.00
1361;DHT22;674;45.552;-122.600;2022-10-16T07:44:26;22.40;1.00
1361;DHT22;674;45.552;-122.600;2022-10-16T07:46:55;22.40;1.00
1361;DHT22;674;45.552;-122.600;2022-10-16T07:49:23;22.30;1.00
1361;DHT22;674;45.552;-122.600;2022-10-16T07:51:51;22.30;1.00
1361;DHT22;674;45.552;-122.600;2022-10-16T07:54:20;22.20;1.00
1361;DHT22;674;45.552;-122.600;2022-10-16T07:56:48;22.10;1.00
1361;DHT22;674;45.552;-122.600;2022-10-16T07:59:17;22.10;1.00
1361;DHT22;674;45.552;-122.600;2022-10-16T08:01:45;21.90;1.00
1361;DHT22;674;45.552;-122.600;2022-10-16T08:04:14;21.90;1.00
1361;DHT22;674;45.552;-122.600;2022-10-16T08:06:42;21.90;1.00
1361;DHT22;674;45.552;-122.600;2022-10-16T08:09:10;21.90;1.00
1361;DHT22;674;45.552;-122.600;2022-10-16T08:11:39;22.00;1.00
1361;DHT22;674;45.552;-122.600;2022-10-16T08:14:07;21.90;1.00
1361;DHT22;674;45.552;-122.600;2022-10-16T08:16:36;21.90;1.00
1361;DHT22;674;45.552;-122.600;2022-10-16T08:19:04;22.00;1.00
1361;DHT22;674;45.552;-122.600;2022-10-16T08:21:32;22.00;1.00
1361;DHT22;674;45.552;-122.600;2022-10-16T08:24:01;22.00;1.00
1361;DHT22;674;45.552;-122.600;2022-10-16T08:26:30;21.90;1.00
1361;DHT22;674;45.552;-122.600;2022-10-16T08:28:58;21.90;1.00
1361;DHT22;674;45.552;-122.600;2022-10-16T08:31:27;22.00;1.00
1361;DHT22;674;45.552;-122.600;2022-10-16T08:33:55;21.80;1.00
1361;DHT22;674;45.552;-122.600;2022-10-16T08:36:23;21.80;1.00
1361;DHT22;674;45.552;-122.600;2022-10-16T08:38:52;21.80;1.00
1361;DHT22;674;45.552;-122.600;2022-10-16T08:44:27;21.80;1.00
1361;DHT22;674;45.552;-122.600;2022-10-16T08:49:47;22.00;1.00
1361;DHT22;674;45.552;-122.600;2022-10-16T08:52:19;21.90;1.00
1361;DHT22;674;45.552;-122.600;2022-10-16T08:54:52;21.90;1.00
1361;DHT22;674;45.552;-122.600;2022-10-16T08:57:24;21.90;1.00
1361;DHT22;674;45.552;-122.600;2022-10-16T08:59:55;21.80;1.00
1361;DHT22;674;45.552;-122.600;2022-10-16T09:07:59;21.70;1.00
1361;DHT22;674;45.552;-122.600;2022-10-16T09:13:43;21.70;1.00
1361;DHT22;674;45.552;-122.600;2022-10-16T09:16:27;21.70;1.00
1361;DHT22;674;45.552;-122.600;2022-10-16T09:19:04;21.90;1.00
1361;DHT22;674;45.552;-122.600;2022-10-16T09:21:44;21.70;1.00
1361;DHT22;674;45.552;-122.600;2022-10-16T09:24:18;21.70;1.00
1361;DHT22;674;45.552;-122.600;2022-10-16T09:26:49;21.70;1.00
1361;DHT22;674;45.552;-122.600;2022-10-16T09:29:20;21.70;1.00
1361;DHT22;674;45.552;-122.600;2022-10-16T09:31:49;21.60;1.00
1361;DHT22;674;45.552;-122.600;2022-10-16T09:34:32;21.60;1.00
1361;DHT22;674;45.552;-122.600;2022-10-16T09:37:04;21.70;1.00
1361;DHT22;674;45.552;-122.600;2022-10-16T09:39:48;21.60;1.00
1361;DHT22;674;45.552;-122.600;2022-10-16T09:42:19;21.50;1.00
1361;DHT22;674;45.552;-122.600;2022-10-16T09:44:52;21.50;1.00
1361;DHT22;674;45.552;-122.600;2022-10-16T09:47:23;21.40;1.00
1361;DHT22;674;45.552;-122.600;2022-10-16T09:50:02;21.50;1.00
1361;DHT22;674;45.552;-122.600;2022-10-16T09:52:32;21.40;1.00
1361;DHT22;674;45.552;-122.600;2022-10-16T09:55:12;21.30;1.00
1361;DHT22;674;45.552;-122.600;2022-10-16T09:57:54;21.40;1.00
1361;DHT22;674;45.552;-122.600;2022-10-16T10:00:23;21.50;1.00
1361;DHT22;674;45.552;-122.600;2022-10-16T10:02:53;21.40;1.00
1361;DHT22;674;45.552;-122.600;2022-10-16T10:05:27;21.50;1.00
1361;DHT22;674;45.552;-122.600;2022-10-16T10:08:06;21.50;1.00
1361;DHT22;674;45.552;-122.600;2022-10-16T10:10:44;21.50;1.00
1361;DHT22;674;45.552;-122.600;2022-10-16T10:13:24;21.50;1.00
1361;DHT22;674;45.552;-122.600;2022-10-16T10:15:54;21.50;1.00
1361;DHT22;674;45.552;-122.600;2022-10-16T10:18:23;21.50;1.00
1361;DHT22;674;45.552;-122.600;2022-10-16T10:21:03;21.40;1.00
1361;DHT22;674;45.552;-122.600;2022-10-16T10:23:33;21.50;1.00
1361;DHT22;674;45.552;-122.600;2022-10-16T10:26:28;21.40;1.00
1361;DHT22;674;45.552;-122.600;2022-10-16T10:34:45;21.10;1.00
1361;DHT22;674;45.552;-122.600;2022-10-16T10:43:39;20.90;1.00
1361;DHT22;674;45.552;-122.600;2022-10-16T10:46:20;21.00;1.00
1361;DHT22;674;45.552;-122.600;2022-10-16T11:05:38;20.70;1.00
1361;DHT22;674;45.552;-122.600;2022-10-16T11:08:18;20.70;1.00
1361;DHT22;674;45.552;-122.600;2022-10-16T11:10:57;20.90;1.00
1361;DHT22;674;45.552;-122.600;2022-10-16T11:13:38;20.90;1.00
1361;DHT22;674;45.552;-122.600;2022-10-16T11:16:17;20.80;1.00
1361;DHT22;674;45.552;-122.600;2022-10-16T11:24:49;20.60;1.00
1361;DHT22;674;45.552;-122.600;2022-10-16T11:27:35;20.50;1.00
1361;DHT22;674;45.552;-122.600;2022-10-16T11:30:29;20.50;1.00
1361;DHT22;674;45.552;-122.600;2022-10-16T11:33:20;20.60;1.00
1361;DHT22;674;45.552;-122.600;2022-10-16T11:36:16;20.80;1.00
1361;DHT22;674;45.552;-122.600;2022-10-16T11:41:55;21.00;1.00
1361;DHT22;674;45.552;-122.600;2022-10-16T11:50:28;21.10;1.00
1361;DHT22;674;45.552;-122.600;2022-10-16T11:55:41;21.00;1.00
1361;DHT22;674;45.552;-122.600;2022-10-16T11:58:33;21.00;1.00
1361;DHT22;674;45.552;-122.600;2022-10-16T12:03:42;20.50;1.00
1361;DHT22;674;45.552;-122.600;2022-10-16T12:06:37;20.40;1.00
1361;DHT22;674;45.552;-122.600;2022-10-16T12:11:50;20.00;1.00
1361;DHT22;674;45.552;-122.600;2022-10-16T12:16:54;20.10;1.00
1361;DHT22;674;45.552;-122.600;2022-10-16T12:19:25;20.00;1.00
1361;DHT22;674;45.552;-122.600;2022-10-16T12:21:59;20.10;1.00
1361;DHT22;674;45.552;-122.600;2022-10-16T12:24:39;20.30;1.00
1361;DHT22;674;45.552;-122.600;2022-10-16T12:27:29;20.40;1.00
1361;DHT22;674;45.552;-122.600;2022-10-16T12:30:03;20.30;1.00
1361;DHT22;674;45.552;-122.600;2022-10-16T12:32:37;20.20;1.00
1361;DHT22;674;45.552;-122.600;2022-10-16T12:35:25;20.30;1.00
1361;DHT22;674;45.552;-122.600;2022-10-16T12:38:03;20.50;1.00
1361;DHT22;674;45.552;-122.600;2022-10-16T12:40:34;20.80;1.00
1361;DHT22;674;45.552;-122.600;2022-10-16T12:48:41;20.70;1.00
1361;DHT22;674;45.552;-122.600;2022-10-16T12:54:03;20.80;1.00
1361;DHT22;674;45.552;-122.600;2022-10-16T13:16:12;20.40;1.00
1361;DHT22;674;45.552;-122.600;2022-10-16T13:18:56;20.30;1.00
1361;DHT22;674;45.552;-122.600;2022-10-16T13:21:43;20.20;1.00
1361;DHT22;674;45.552;-122.600;2022-10-16T13:27:41;19.90;1.00
1361;DHT22;674;45.552;-122.600;2022-10-16T13:30:19;19.80;1.00
1361;DHT22;674;45.552;-122.600;2022-10-16T13:33:07;19.80;1.00
1361;DHT22;674;45.552;-122.600;2022-10-16T13:35:54;19.60;1.00
1361;DHT22;674;45.552;-122.600;2022-10-16T13:38:28;19.60;1.00
1361;DHT22;674;45.552;-122.600;2022-10-16T13:41:03;19.50;1.00
1361;DHT22;674;45.552;-122.600;2022-10-16T13:43:36;19.60;1.00
1361;DHT22;674;45.552;-122.600;2022-10-16T13:46:12;19.50;1.00
1361;DHT22;674;45.552;-122.600;2022-10-16T13:48:41;19.60;1.00
1361;DHT22;674;45.552;-122.600;2022-10-16T13:51:17;19.80;1.00
1361;DHT22;674;45.552;-122.600;2022-10-16T13:53:46;20.20;1.00
1361;DHT22;674;45.552;-122.600;2022-10-16T13:56:17;20.30;1.00
1361;DHT22;674;45.552;-122.600;2022-10-16T13:58:46;20.30;1.00
1361;DHT22;674;45.552;-122.600;2022-10-16T14:01:18;20.20;1.00
1361;DHT22;674;45.552;-122.600;2022-10-16T14:03:47;20.20;1.00
1361;DHT22;674;45.552;-122.600;2022-10-16T14:06:19;20.10;1.00
1361;DHT22;674;45.552;-122.600;2022-10-16T14:11:26;19.90;1.00
1361;DHT22;674;45.552;-122.600;2022-10-16T14:13:54;19.80;1.00
1361;DHT22;674;45.552;-122.600;2022-10-16T14:16:27;19.60;1.00
1361;DHT22;674;45.552;-122.600;2022-10-16T14:19:01;19.80;1.00
1361;DHT22;674;45.552;-122.600;2022-10-16T14:21:30;19.70;1.00
1361;DHT22;674;45.552;-122.600;2022-10-16T14:24:14;19.60;1.00
1361;DHT22;674;45.552;-122.600;2022-10-16T14:26:50;19.50;1.00
1361;DHT22;674;45.552;-122.600;2022-10-16T14:29:19;19.40;1.00
1361;DHT22;674;45.552;-122.600;2022-10-16T14:32:22;19.40;1.00
1361;DHT22;674;45.552;-122.600;2022-10-16T14:34:54;19.40;1.00
1361;DHT22;674;45.552;-122.600;2022-10-16T14:37:28;19.40;1.00
1361;DHT22;674;45.552;-122.600;2022-10-16T14:39:57;19.30;1.00
1361;DHT22;674;45.552;-122.600;2022-10-16T14:42:26;19.30;1.00
1361;DHT22;674;45.552;-122.600;2022-10-16T14:44:55;19.30;1.00
1361;DHT22;674;45.552;-122.600;2022-10-16T14:47:25;19.30;1.00
1361;DHT22;674;45.552;-122.600;2022-10-16T14:49:55;19.20;1.00
1361;DHT22;674;45.552;-122.600;2022-10-16T14:52:26;19.30;1.00
1361;DHT22;674;45.552;-122.600;2022-10-16T14:54:54;19.30;1.00
1361;DHT22;674;45.552;-122.600;2022-10-16T14:57:26;19.20;1.00
1361;DHT22;674;45.552;-122.600;2022-10-16T14:59:56;19.20;1.00
1361;DHT22;674;45.552;-122.600;2022-10-16T15:02:30;19.10;1.00
1361;DHT22;674;45.552;-122.600;2022-10-16T15:05:21;19.20;1.00
1361;DHT22;674;45.552;-122.600;2022-10-16T15:07:52;19.20;1.00
1361;DHT22;674;45.552;-122.600;2022-10-16T15:10:25;19.30;1.00
1361;DHT22;674;45.552;-122.600;2022-10-16T15:12:55;19.30;1.00
1361;DHT22;674;45.552;-122.600;2022-10-16T15:15:25;19.20;1.00
1361;DHT22;674;45.552;-122.600;2022-10-16T15:17:56;19.20;1.00
1361;DHT22;674;45.552;-122.600;2022-10-16T15:20:30;19.40;1.00
1361;DHT22;674;45.552;-122.600;2022-10-16T15:23:04;19.50;1.00
1361;DHT22;674;45.552;-122.600;2022-10-16T15:28:02;19.60;1.00
1361;DHT22;674;45.552;-122.600;2022-10-16T15:30:31;19.70;1.00
1361;DHT22;674;45.552;-122.600;2022-10-16T15:33:00;19.80;1.00
1361;DHT22;674;45.552;-122.600;2022-10-16T15:35:28;19.80;1.00
1361;DHT22;674;45.552;-122.600;2022-10-16T15:37:57;20.00;1.00
1361;DHT22;674;45.552;-122.600;2022-10-16T15:40:26;20.00;1.00
1361;DHT22;674;45.552;-122.600;2022-10-16T15:42:54;20.20;1.00
1361;DHT22;674;45.552;-122.600;2022-10-16T15:45:23;20.20;1.00
1361;DHT22;674;45.552;-122.600;2022-10-16T15:47:51;20.40;1.00
1361;DHT22;674;45.552;-122.600;2022-10-16T15:50:20;20.50;1.00
1361;DHT22;674;45.552;-122.600;2022-10-16T15:52:50;20.50;1.00
1361;DHT22;674;45.552;-122.600;2022-10-16T15:55:18;20.60;1.00
1361;DHT22;674;45.552;-122.600;2022-10-16T15:57:47;20.70;1.00
1361;DHT22;674;45.552;-122.600;2022-10-16T16:00:18;20.90;1.00
1361;DHT22;674;45.552;-122.600;2022-10-16T16:02:55;20.90;1.00
1361;DHT22;674;45.552;-122.600;2022-10-16T16:05:24;20.90;1.00
1361;DHT22;674;45.552;-122.600;2022-10-16T16:07:52;21.00;1.00
1361;DHT22;674;45.552;-122.600;2022-10-16T16:10:21;21.10;1.00
1361;DHT22;674;45.552;-122.600;2022-10-16T16:12:49;21.20;1.00
1361;DHT22;674;45.552;-122.600;2022-10-16T16:15:21;21.30;1.00
1361;DHT22;674;45.552;-122.600;2022-10-16T16:17:50;21.40;1.00
1361;DHT22;674;45.552;-122.600;2022-10-16T16:20:18;21.50;1.00
1361;DHT22;674;45.552;-122.600;2022-10-16T16:22:47;21.70;1.00
1361;DHT22;674;45.552;-122.600;2022-10-16T16:25:15;21.80;1.00
1361;DHT22;674;45.552;-122.600;2022-10-16T16:27:44;21.90;1.00
1361;DHT22;674;45.552;-122.600;2022-10-16T16:30:12;21.90;1.00
1361;DHT22;674;45.552;-122.600;2022-10-16T16:32:46;21.90;1.00
1361;DHT22;674;45.552;-122.600;2022-10-16T16:35:15;21.90;1.00
1361;DHT22;674;45.552;-122.600;2022-10-16T16:37:43;21.90;1.00
1361;DHT22;674;45.552;-122.600;2022-10-16T16:40:12;21.90;1.00
1361;DHT22;674;45.552;-122.600;2022-10-16T16:42:40;21.90;1.00
1361;DHT22;674;45.552;-122.600;2022-10-16T16:45:09;22.00;1.00
1361;DHT22;674;45.552;-122.600;2022-10-16T16:47:37;22.10;1.00
1361;DHT22;674;45.552;-122.600;2022-10-16T16:50:07;22.10;1.00
1361;DHT22;674;45.552;-122.600;2022-10-16T16:52:35;22.30;1.00
1361;DHT22;674;45.552;-122.600;2022-10-16T16:55:04;22.30;1.00
1361;DHT22;674;45.552;-122.600;2022-10-16T16:57:32;22.40;1.00
1361;DHT22;674;45.552;-122.600;2022-10-16T17:00:01;22.50;1.00
1361;DHT22;674;45.552;-122.600;2022-10-16T17:02:29;22.60;1.00
1361;DHT22;674;45.552;-122.600;2022-10-16T17:04:58;22.60;1.00
1361;DHT22;674;45.552;-122.600;2022-10-16T17:07:26;22.60;1.00
1361;DHT22;674;45.552;-122.600;2022-10-16T17:10:01;22.80;1.00
1361;DHT22;674;45.552;-122.600;2022-10-16T17:12:30;22.80;1.00
1361;DHT22;674;45.552;-122.600;2022-10-16T17:14:58;22.90;1.00
1361;DHT22;674;45.552;-122.600;2022-10-16T17:17:27;23.00;1.00
1361;DHT22;674;45.552;-122.600;2022-10-16T17:19:56;23.10;1.00
1361;DHT22;674;45.552;-122.600;2022-10-16T17:22:24;23.00;1.00
1361;DHT22;674;45.552;-122.600;2022-10-16T17:24:53;23.00;1.00
1361;DHT22;674;45.552;-122.600;2022-10-16T17:27:21;23.10;1.00
1361;DHT22;674;45.552;-122.600;2022-10-16T17:29:51;23.10;1.00
1361;DHT22;674;45.552;-122.600;2022-10-16T17:32:19;23.30;1.00
1361;DHT22;674;45.552;-122.600;2022-10-16T17:34:48;23.30;1.00
1361;DHT22;674;45.552;-122.600;2022-10-16T17:37:17;23.30;1.00
1361;DHT22;674;45.552;-122.600;2022-10-16T17:39:45;23.40;1.00
1361;DHT22;674;45.552;-122.600;2022-10-16T17:42:14;23.50;1.00
1361;DHT22;674;45.552;-122.600;2022-10-16T17:44:42;23.70;1.00
1361;DHT22;674;45.552;-122.600;2022-10-16T17:47:11;23.70;1.00
1361;DHT22;674;45.552;-122.600;2022-10-16T17:49:39;23.80;1.00
1361;DHT22;674;45.552;-122.600;2022-10-16T17:52:08;23.90;1.00
1361;DHT22;674;45.552;-122.600;2022-10-16T17:54:36;23.80;1.00
1361;DHT22;674;45.552;-122.600;2022-10-16T17:57:04;23.90;1.00
1361;DHT22;674;45.552;-122.600;2022-10-16T17:59:33;24.10;1.00
1361;DHT22;674;45.552;-122.600;2022-10-16T18:02:02;24.00;1.00
1361;DHT22;674;45.552;-122.600;2022-10-16T18:04:30;24.10;1.00
1361;DHT22;674;45.552;-122.600;2022-10-16T18:06:59;24.10;1.00
1361;DHT22;674;45.552;-122.600;2022-10-16T18:09:29;24.00;1.00
1361;DHT22;674;45.552;-122.600;2022-10-16T18:11:57;24.20;1.00